Time;durP1;ratioP1;P1;durP2;ratioP2;P2;SDS_P1;SDS_P2;PMS_P1;PMS_P2;Temp;Humidity;BMP_temperature;BMP_pressure;BME280_temperature;BME280_humidity;BME280_pressure;Samples;Min_cycle;Max_cycle;Signal;HPM_P1;HPM_P2
2023/04/04 00:00:55;;;;;;;13.70;6.90;;;;;;;4.79;90.84;100497.61;124729;1099;104160;-74
2023/04/04 00:03:28;;;;;;;17.77;7.67;;;;;;;4.79;91.07;100502.80;124352;1099;104044;-73
2023/04/04 00:06:00;;;;;;;15.87;7.50;;;;;;;4.81;91.44;100503.78;124824;1099;104034;-74
2023/04/04 00:08:32;;;;;;;16.93;7.90;;;;;;;4.81;91.63;100508.98;124786;1099;104030;-73
2023/04/04 00:11:05;;;;;;;17.23;7.30;;;;;;;4.78;91.17;100501.89;124746;1098;101583;-73
2023/04/04 00:13:38;;;;;;;17.83;8.17;;;;;;;4.78;91.26;100501.89;124780;1099;103954;-75
2023/04/04 00:16:10;;;;;;;17.23;7.93;;;;;;;4.77;91.40;100506.99;124669;1099;104108;-74
2023/04/04 00:18:42;;;;;;;18.63;7.67;;;;;;;4.73;91.34;100511.13;124744;1098;101715;-73
2023/04/04 00:21:15;;;;;;;15.33;7.37;;;;;;;4.71;91.73;100501.47;124725;1099;103977;-74
2023/04/04 00:23:47;;;;;;;22.07;8.83;;;;;;;4.71;91.84;100498.87;126834;1098;103971;-73
2023/04/04 00:26:20;;;;;;;16.43;7.40;;;;;;;4.68;92.28;100508.25;124777;1099;104066;-73
2023/04/04 00:28:52;;;;;;;17.70;8.43;;;;;;;4.68;91.06;100492.66;124668;1099;103341;-73
2023/04/04 00:31:24;;;;;;;18.27;8.03;;;;;;;4.67;91.72;100485.69;124729;1098;103948;-74
2023/04/04 00:33:56;;;;;;;19.10;8.10;;;;;;;4.67;91.20;100487.37;124674;1099;104033;-74
2023/04/04 00:36:29;;;;;;;17.03;7.80;;;;;;;4.66;91.20;100483.88;124737;1099;101628;-74
2023/04/04 00:39:01;;;;;;;18.70;8.20;;;;;;;4.67;92.14;100488.29;124780;1099;101735;-73
2023/04/04 00:41:33;;;;;;;19.77;8.83;;;;;;;4.66;91.70;100483.88;124747;1099;101967;-74
2023/04/04 00:44:06;;;;;;;16.20;7.03;;;;;;;4.64;91.66;100479.39;124397;1099;104130;-73
2023/04/04 00:46:39;;;;;;;18.03;8.20;;;;;;;4.64;91.62;100467.31;124779;1098;104043;-73
2023/04/04 00:49:15;;;;;;;17.33;7.50;;;;;;;4.64;91.39;100462.11;124710;1099;102506;-75
2023/04/04 00:51:48;;;;;;;18.63;7.60;;;;;;;4.61;91.88;100459.33;124675;1098;104178;-74
2023/04/04 00:54:20;;;;;;;16.50;7.93;;;;;;;4.60;91.85;100465.33;124275;1099;101700;-73
2023/04/04 00:56:54;;;;;;;19.37;7.87;;;;;;;4.60;91.56;100457.53;124676;1099;101609;-73
2023/04/04 00:59:30;;;;;;;18.30;7.33;;;;;;;4.60;92.57;100454.05;124688;1099;101679;-74
2023/04/04 01:02:03;;;;;;;18.57;7.43;;;;;;;4.57;92.68;100452.15;124758;1099;104072;-74
2023/04/04 01:04:36;;;;;;;18.47;7.93;;;;;;;4.53;92.50;100449.28;124796;1099;101683;-73
2023/04/04 01:07:08;;;;;;;15.60;7.30;;;;;;;4.54;92.43;100451.97;124675;1099;104111;-73
2023/04/04 01:09:41;;;;;;;18.70;8.23;;;;;;;4.53;92.81;100434.57;124402;1099;104018;-74
2023/04/04 01:12:13;;;;;;;18.07;8.27;;;;;;;4.52;92.73;100434.48;124798;1098;103958;-73
2023/04/04 01:14:46;;;;;;;18.23;8.10;;;;;;;4.49;93.15;100432.63;124675;1099;103973;-75
2023/04/04 01:17:21;;;;;;;19.27;8.77;;;;;;;4.47;92.83;100434.20;124719;1099;104187;-74
2023/04/04 01:20:00;;;;;;;18.75;7.45;;;;;;;4.44;93.05;100423.63;124721;1099;101702;-74
2023/04/04 01:22:35;;;;;;;20.27;7.73;;;;;;;4.42;93.20;100436.53;124350;1099;103945;-74
2023/04/04 01:25:07;;;;;;;;;;;;;;;4.39;93.81;100430.27;124751;1099;103980;-74
2023/04/04 01:27:40;;;;;;;20.50;7.90;;;;;;;4.37;93.36;100431.89;124636;1099;103934;-75
2023/04/04 01:30:18;;;;;;;16.57;7.87;;;;;;;4.36;93.88;100417.98;124443;1099;104117;-73
2023/04/04 01:32:56;;;;;;;18.15;7.70;;;;;;;4.38;93.00;100424.19;124406;1099;103938;-74
2023/04/04 01:35:36;;;;;;;18.27;7.60;;;;;;;4.37;93.12;100424.98;124703;1099;101679;-73
2023/04/04 01:38:25;;;;;;;17.30;8.13;;;;;;;4.41;93.24;100420.86;124746;1099;104022;-73
2023/04/04 01:41:04;;;;;;;18.00;8.23;;;;;;;4.44;93.57;100426.23;124704;1099;103974;-73
2023/04/04 01:43:38;;;;;;;16.40;7.30;;;;;;;4.45;93.79;100422.84;124343;1099;101774;-73
2023/04/04 01:46:11;;;;;;;16.40;7.63;;;;;;;4.46;92.80;100416.84;124318;1100;104178;-74
2023/04/04 01:48:45;;;;;;;18.27;7.93;;;;;;;4.43;93.57;100425.34;126451;1098;104019;-73
2023/04/04 01:51:18;;;;;;;16.95;7.83;;;;;;;4.44;93.52;100429.75;124330;1099;104073;-73
2023/04/04 01:53:50;;;;;;;16.55;7.25;;;;;;;4.44;93.61;100423.63;124428;1099;104031;-74
2023/04/04 01:56:22;;;;;;;18.77;8.23;;;;;;;4.45;93.63;100422.84;124723;1099;102079;-74
2023/04/04 01:58:55;;;;;;;18.07;8.20;;;;;;;4.46;93.80;100422.94;124317;1099;101713;-73
2023/04/04 02:01:27;;;;;;;17.17;7.90;;;;;;;4.48;93.53;100426.50;124751;1099;103974;-73
2023/04/04 02:03:59;;;;;;;17.03;7.27;;;;;;;4.50;93.40;100418.80;124754;1099;103948;-74
2023/04/04 02:06:32;;;;;;;15.23;7.27;;;;;;;4.51;92.71;100425.80;124714;1099;104066;-74
2023/04/04 02:09:05;;;;;;;14.50;6.80;;;;;;;4.50;93.47;100416.20;124335;1099;104037;-74
2023/04/04 02:11:38;;;;;;;14.80;6.83;;;;;;;4.48;93.50;100415.23;124703;1098;103976;-74
2023/04/04 02:14:10;;;;;;;18.37;7.53;;;;;;;4.47;93.34;100410.83;124344;1099;103939;-73
2023/04/04 02:16:43;;;;;;;15.33;6.87;;;;;;;4.47;92.78;100414.34;124705;1099;104006;-73
2023/04/04 02:19:15;;;;;;;16.07;7.07;;;;;;;4.46;93.13;100407.34;124723;1099;103942;-73
2023/04/04 02:21:47;;;;;;;16.20;7.17;;;;;;;4.45;92.79;100402.94;124296;1099;102287;-73
2023/04/04 02:24:20;;;;;;;16.73;6.67;;;;;;;4.46;93.13;100411.66;124305;1099;101658;-74
2023/04/04 02:26:52;;;;;;;13.67;6.27;;;;;;;4.44;93.54;100403.77;124764;1099;103945;-75
2023/04/04 02:29:24;;;;;;;14.17;6.80;;;;;;;4.44;93.29;100397.66;124716;1099;101669;-74
2023/04/04 02:31:56;;;;;;;12.90;5.70;;;;;;;4.42;93.79;100379.37;124725;1099;103945;-73
2023/04/04 02:34:29;;;;;;;15.10;6.20;;;;;;;4.40;93.09;100385.31;124641;1099;104053;-72
2023/04/04 02:37:02;;;;;;;12.37;6.10;;;;;;;4.42;93.04;100391.48;124578;1098;107907;-74
2023/04/04 02:39:35;;;;;;;15.13;7.30;;;;;;;4.42;92.86;100391.48;124202;1099;104129;-72
2023/04/04 02:42:07;;;;;;;16.37;7.03;;;;;;;4.42;92.92;100386.28;124752;1099;104069;-74
2023/04/04 02:44:40;;;;;;;13.37;6.03;;;;;;;4.41;93.38;100387.08;124810;1099;101626;-73
2023/04/04 02:47:13;;;;;;;12.53;5.40;;;;;;;4.40;92.81;100385.31;124359;1099;103957;-74
2023/04/04 02:49:46;;;;;;;14.50;5.97;;;;;;;4.41;93.03;100390.59;124711;1099;103951;-72
2023/04/04 02:52:20;;;;;;;14.15;6.05;;;;;;;4.40;93.61;100390.51;124327;1099;102180;-74
2023/04/04 02:54:54;;;;;;;15.55;6.50;;;;;;;4.38;93.26;100387.81;124739;1099;104040;-75
2023/04/04 02:57:33;;;;;;;14.40;6.03;;;;;;;4.36;92.96;100389.41;124339;1099;101717;-72
2023/04/04 03:00:08;;;;;;;21.20;8.27;;;;;;;4.35;93.53;100387.64;124389;1099;102989;-72
2023/04/04 03:02:41;;;;;;;17.83;7.43;;;;;;;4.34;93.57;100401.42;124813;1099;104043;-71
2023/04/04 03:05:13;;;;;;;16.33;7.47;;;;;;;4.34;93.23;100398.83;124860;1099;103890;-73
2023/04/04 03:07:45;;;;;;;13.97;6.47;;;;;;;4.36;92.81;100402.40;124491;1099;103878;-74
2023/04/04 03:10:18;;;;;;;14.27;6.30;;;;;;;4.36;93.33;100394.60;124618;1099;104076;-72
2023/04/04 03:12:50;;;;;;;16.60;7.00;;;;;;;4.36;93.92;100406.71;124429;1099;103955;-73
2023/04/04 03:15:22;;;;;;;15.20;7.00;;;;;;;4.35;92.96;100398.03;124417;1099;101965;-74
2023/04/04 03:17:55;;;;;;;14.63;6.50;;;;;;;4.36;93.01;100401.52;124943;1099;103945;-73
2023/04/04 03:20:30;;;;;;;13.57;6.20;;;;;;;4.34;93.58;100398.83;124893;1099;104028;-71
2023/04/04 03:23:02;;;;;;;16.23;6.80;;;;;;;4.34;93.48;100406.62;124867;1099;104047;-72
2023/04/04 03:25:35;;;;;;;13.90;6.53;;;;;;;4.37;93.35;100408.52;124867;1099;102441;-72
2023/04/04 03:28:13;;;;;;;14.83;6.47;;;;;;;4.39;93.02;100410.37;124848;1099;104037;-72
2023/04/04 03:30:46;;;;;;;15.23;6.60;;;;;;;4.39;93.66;100414.69;124912;1099;103955;-71
2023/04/04 03:33:20;;;;;;;15.70;7.00;;;;;;;4.39;93.41;100412.09;124415;1099;103952;-71
2023/04/04 03:35:53;;;;;;;15.68;6.95;;;;;;;4.39;93.36;100414.69;124873;1099;104101;-73
2023/04/04 03:38:26;;;;;;;16.43;7.27;;;;;;;4.40;93.56;100419.97;124853;1098;118985;-71
2023/04/04 03:41:05;;;;;;;16.80;7.45;;;;;;;4.41;92.74;100418.26;124715;1099;101996;-71
2023/04/04 03:43:38;;;;;;;14.17;6.93;;;;;;;4.42;93.45;100415.75;124246;1099;104066;-71
2023/04/04 03:46:10;;;;;;;15.13;6.93;;;;;;;4.45;93.19;100407.25;124709;1099;104115;-72
2023/04/04 03:48:42;;;;;;;15.87;7.20;;;;;;;4.44;93.36;100405.45;124366;1099;103945;-72
2023/04/04 03:51:15;;;;;;;18.23;7.80;;;;;;;4.44;93.10;100402.84;124839;1099;104441;-72
2023/04/04 03:53:49;;;;;;;13.08;6.92;;;;;;;4.46;92.82;100407.34;124444;1099;104003;-72
2023/04/04 03:56:21;;;;;;;17.93;7.63;;;;;;;4.47;93.20;100409.14;124879;1099;102303;-71
2023/04/04 03:58:55;;;;;;;15.53;7.23;;;;;;;4.48;93.38;100412.63;124848;1099;104443;-73
2023/04/04 04:01:26;;;;;;;;;;;;;;;4.38;93.11;100392.09;124415;1099;103274;-70
2023/04/04 04:03:59;;;;;;;14.33;6.90;;;;;;;4.44;93.17;100406.37;124662;1098;103970;-70
2023/04/04 04:06:32;;;;;;;14.85;7.00;;;;;;;4.40;93.46;100401.78;124645;1099;104046;-71
2023/04/04 04:09:05;;;;;;;16.60;7.80;;;;;;;4.40;93.16;100393.11;124724;1098;103958;-70
2023/04/04 04:11:37;;;;;;;15.77;7.27;;;;;;;4.43;93.35;100396.77;124635;1099;103454;-70
2023/04/04 04:14:09;;;;;;;17.07;7.33;;;;;;;4.44;93.18;100405.45;125956;1098;101463;-70
2023/04/04 04:16:42;;;;;;;14.97;7.20;;;;;;;4.41;93.08;100385.41;124559;1099;102091;-69
2023/04/04 04:19:15;;;;;;;18.37;8.40;;;;;;;4.43;93.28;100380.30;124524;1099;104037;-69
2023/04/04 04:21:48;;;;;;;16.83;7.90;;;;;;;4.46;93.04;100380.47;124584;1099;103987;-69
2023/04/04 04:24:20;;;;;;;16.53;7.30;;;;;;;4.49;93.56;100383.25;124649;1099;103993;-68
2023/04/04 04:26:52;;;;;;;;;;;;;;;4.48;93.03;100376.25;124694;1099;104044;-68
2023/04/04 04:29:25;;;;;;;15.45;6.90;;;;;;;4.48;93.56;100382.33;124566;1099;104194;-68
2023/04/04 04:31:58;;;;;;;16.90;7.60;;;;;;;4.48;93.28;100377.13;124150;1099;104012;-68
2023/04/04 04:34:30;;;;;;;;;;;;;;;4.49;93.62;100378.05;124220;1099;103919;-69
2023/04/04 04:37:05;;;;;;;14.30;6.87;;;;;;;4.47;93.66;100377.05;124228;1099;102628;-69
2023/04/04 04:39:45;;;;;;;16.00;7.30;;;;;;;4.44;93.49;100362.20;124495;1099;104088;-70
2023/04/04 04:42:45;;;;;;;18.20;7.17;;;;;;;4.44;93.61;100371.67;125350;1098;104136;-70
2023/04/04 04:45:19;;;;;;;16.47;7.90;;;;;;;4.45;93.67;100363.08;124567;1099;104037;-69
2023/04/04 04:47:55;;;;;;;15.13;7.90;;;;;;;4.44;93.68;100366.48;124625;1099;104043;-70
2023/04/04 04:50:27;;;;;;;16.23;7.80;;;;;;;4.45;93.18;100368.28;124494;1099;104120;-69
2023/04/04 04:53:01;;;;;;;16.37;6.95;;;;;;;4.46;93.56;100385.67;124596;1099;103951;-69
2023/04/04 04:55:33;;;;;;;19.20;8.13;;;;;;;4.48;93.68;100394.44;124564;1098;101842;-69
2023/04/04 04:58:11;;;;;;;16.07;6.93;;;;;;;4.53;93.73;100392.11;124587;1099;104092;-70
2023/04/04 05:00:44;;;;;;;16.10;7.50;;;;;;;4.57;93.40;100392.38;124682;1099;104184;-70
2023/04/04 05:03:16;;;;;;;15.63;7.27;;;;;;;4.61;93.23;100390.84;124543;1099;101668;-69
2023/04/04 05:05:53;;;;;;;17.63;7.63;;;;;;;4.61;93.55;100391.77;124552;1099;101760;-70
2023/04/04 05:08:26;;;;;;;16.27;7.83;;;;;;;4.64;93.95;100391.02;124637;1099;104063;-70
2023/04/04 05:11:11;;;;;;;17.67;9.10;;;;;;;4.63;93.74;100387.53;124522;1099;104082;-72
2023/04/04 05:13:43;;;;;;;19.67;9.97;;;;;;;4.63;93.52;100384.94;124532;1099;104035;-70
2023/04/04 05:16:16;;;;;;;18.20;8.23;;;;;;;4.65;93.80;100392.82;124526;1099;104027;-71
2023/04/04 05:18:50;;;;;;;16.57;8.08;;;;;;;4.65;93.65;100398.02;125633;1099;104003;-71
2023/04/04 05:21:22;;;;;;;15.90;8.00;;;;;;;4.61;94.29;100391.77;124568;1099;104035;-71
2023/04/04 05:23:56;;;;;;;16.10;7.47;;;;;;;4.60;94.70;100395.16;124602;1099;104161;-70
2023/04/04 05:26:29;;;;;;;17.50;8.23;;;;;;;4.57;94.53;100384.58;124580;1099;104031;-71
2023/04/04 05:29:03;;;;;;;16.73;8.00;;;;;;;4.58;94.84;100382.87;125629;1099;104034;-72
2023/04/04 05:31:36;;;;;;;17.87;8.77;;;;;;;4.57;94.85;100381.98;124545;1099;104003;-71
2023/04/04 05:34:11;;;;;;;22.17;10.53;;;;;;;4.58;94.59;100382.87;124520;1099;103986;-70
2023/04/04 05:36:45;;;;;;;21.65;9.90;;;;;;;4.50;94.84;100369.43;124489;1099;104047;-69
2023/04/04 05:39:17;;;;;;;21.50;10.37;;;;;;;4.61;94.44;100383.97;124526;1099;104021;-69
2023/04/04 05:41:56;;;;;;;23.40;11.30;;;;;;;4.60;93.75;100397.75;124548;1099;104165;-71
2023/04/04 05:44:29;;;;;;;24.87;11.67;;;;;;;4.60;93.70;100395.16;124598;1099;102587;-71
2023/04/04 05:47:05;;;;;;;24.23;11.87;;;;;;;4.65;93.81;100398.02;124147;1099;104015;-71
2023/04/04 05:49:38;;;;;;;26.17;12.87;;;;;;;4.68;93.79;100400.80;124535;1099;101622;-72
2023/04/04 05:52:11;;;;;;;25.07;11.67;;;;;;;4.70;93.22;100395.69;124212;1099;104120;-71
2023/04/04 05:54:43;;;;;;;26.90;12.87;;;;;;;4.68;93.36;100398.20;124535;1099;104063;-71
2023/04/04 05:57:20;;;;;;;27.03;12.47;;;;;;;4.70;93.38;100393.09;124538;1099;104040;-71
2023/04/04 05:59:58;;;;;;;28.50;14.00;;;;;;;4.71;93.02;100398.38;124489;1099;101924;-71
2023/04/04 06:02:31;;;;;;;33.00;15.13;;;;;;;4.73;92.97;100394.15;125019;1099;104050;-70
2023/04/04 06:05:34;;;;;;;27.50;14.00;;;;;;;4.78;93.35;100394.41;124597;1099;104038;-76
2023/04/04 06:08:09;;;;;;;32.53;13.97;;;;;;;4.84;92.40;100399.96;124978;1099;103945;-72
2023/04/04 06:10:44;;;;;;;35.37;16.37;;;;;;;4.86;92.62;100398.33;125119;1099;102019;-75
2023/04/04 06:13:17;;;;;;;42.07;18.50;;;;;;;4.91;92.66;100406.39;125247;1099;104505;-73
2023/04/04 06:15:55;;;;;;;43.30;19.90;;;;;;;4.93;92.81;100400.48;125325;1099;101678;-73
2023/04/04 06:18:27;;;;;;;32.80;15.73;;;;;;;4.94;92.60;100389.28;124315;1099;104035;-72
2023/04/04 06:21:00;;;;;;;31.07;15.00;;;;;;;4.90;91.99;100368.22;124607;1099;104063;-71
2023/04/04 06:23:33;;;;;;;35.67;16.80;;;;;;;4.91;92.89;100364.80;124178;1099;104108;-72
2023/04/04 06:26:11;;;;;;;38.10;18.30;;;;;;;4.90;92.81;100358.71;124234;1099;104080;-73
2023/04/04 06:28:54;;;;;;;31.83;14.60;;;;;;;4.84;93.11;100360.97;124208;1099;104142;-72
2023/04/04 06:31:31;;;;;;;36.67;17.20;;;;;;;4.82;93.58;100350.48;124563;1099;103969;-73
2023/04/04 06:34:09;;;;;;;37.67;18.67;;;;;;;4.75;93.74;100350.93;124259;1099;104021;-71
2023/04/04 06:36:54;;;;;;;35.70;17.30;;;;;;;4.71;94.04;100358.50;124215;1099;101766;-71
2023/04/04 06:39:30;;;;;;;42.30;20.73;;;;;;;4.69;94.07;100361.02;124303;1099;104074;-75
2023/04/04 06:42:05;;;;;;;35.10;16.80;;;;;;;4.71;94.74;100368.90;124375;1099;101921;-74
2023/04/04 06:44:41;;;;;;;40.93;20.07;;;;;;;4.72;94.20;100365.47;124100;1099;102078;-76
2023/04/04 06:47:19;;;;;;;34.17;16.70;;;;;;;4.74;95.15;100377.75;124362;1099;102747;-73
2023/04/04 06:49:52;;;;;;;36.03;17.33;;;;;;;4.73;95.95;100395.86;124351;1099;103935;-76
2023/04/04 06:52:27;;;;;;;39.17;18.37;;;;;;;4.65;96.32;100385.91;124847;1099;117406;-76
2023/04/04 06:54:59;;;;;;;40.47;19.07;;;;;;;4.59;96.59;100377.76;124771;1099;103989;-76
2023/04/04 06:57:37;;;;;;;48.42;23.45;;;;;;;4.55;96.10;100372.30;124458;1099;104039;-72
2023/04/04 07:00:12;;;;;;;43.13;21.43;;;;;;;4.52;96.33;100370.44;124353;1099;104063;-74
2023/04/04 07:02:56;;;;;;;42.97;21.20;;;;;;;4.48;98.40;100374.54;124706;1099;104040;-76
2023/04/04 07:05:30;;;;;;;46.40;20.43;;;;;;;4.37;99.27;100341.85;124788;1099;104085;-75
2023/04/04 07:08:02;;;;;;;50.00;23.27;;;;;;;4.29;98.43;100328.42;124668;1099;103974;-77
2023/04/04 07:10:35;;;;;;;53.63;25.33;;;;;;;4.28;98.71;100355.19;124768;1099;101647;-81
2023/04/04 07:13:08;;;;;;;42.97;21.33;;;;;;;4.26;100.00;100372.39;125201;1099;111346;-75
2023/04/04 07:15:41;;;;;;;56.40;25.20;;;;;;;4.25;99.33;100367.11;125012;1099;103939;-80
2023/04/04 07:18:21;;;;;;;51.13;24.33;;;;;;;4.26;100.00;100366.31;124836;1099;101756;-75
2023/04/04 07:20:54;;;;;;;54.45;25.35;;;;;;;4.25;100.00;100365.40;125052;1099;101723;-77
2023/04/04 07:23:27;;;;;;;52.43;24.23;;;;;;;4.26;100.00;100371.52;125020;1099;101610;-77
2023/04/04 07:25:59;;;;;;;56.10;27.87;;;;;;;4.25;99.91;100383.58;124993;1099;101908;-75
2023/04/04 07:28:37;;;;;;;54.75;25.90;;;;;;;4.25;100.00;100380.98;124742;1099;104031;-78
2023/04/04 07:31:10;;;;;;;54.20;25.30;;;;;;;4.27;100.00;100376.80;124954;1099;102075;-76
2023/04/04 07:33:47;;;;;;;49.83;24.00;;;;;;;4.28;100.00;100370.77;125024;1099;109047;-77
2023/04/04 07:36:24;;;;;;;49.53;21.87;;;;;;;4.26;100.00;100379.30;124788;1099;104027;-75
2023/04/04 07:38:56;;;;;;;42.20;21.80;;;;;;;4.20;100.00;100386.73;124849;1099;102078;-78
2023/04/04 07:41:29;;;;;;;53.03;25.60;;;;;;;4.19;100.00;100406.63;125070;1099;104053;-82
2023/04/04 07:44:03;;;;;;;50.60;25.27;;;;;;;4.21;100.00;100420.59;125046;1099;117762;-77
2023/04/04 07:46:40;;;;;;;52.00;24.87;;;;;;;4.23;100.00;100424.16;125041;1098;103874;-80
2023/04/04 07:49:16;;;;;;;47.70;23.35;;;;;;;4.24;100.00;100425.97;125276;1099;104000;-78
2023/04/04 07:51:54;;;;;;;39.83;19.63;;;;;;;4.23;100.00;100431.95;124866;1099;103961;-77
2023/04/04 07:54:26;;;;;;;38.02;19.27;;;;;;;4.22;100.00;100430.15;125360;1099;103926;-81
2023/04/04 07:56:58;;;;;;;35.83;18.67;;;;;;;4.22;100.00;100435.34;124920;1099;104040;-74
2023/04/04 07:59:33;;;;;;;35.95;17.65;;;;;;;4.19;100.00;100430.00;126175;1099;101711;-79
2023/04/04 08:02:35;;;;;;;35.40;17.90;;;;;;;4.18;100.00;100427.31;125682;1099;102044;-77
2023/04/04 08:05:27;;;;;;;30.63;16.17;;;;;;;4.18;100.00;100409.13;125274;1099;110857;-78
2023/04/04 08:08:30;;;;;;;31.80;16.70;;;;;;;4.17;100.00;100408.21;125619;1099;103944;-84
2023/04/04 08:11:50;;;;;;;31.53;15.27;;;;;;;4.17;100.00;100408.21;127484;1098;101805;-81
2023/04/04 08:14:36;;;;;;;32.60;16.67;;;;;;;4.19;100.00;100414.42;126844;1098;101912;-81
2023/04/04 08:17:08;;;;;;;33.00;15.80;;;;;;;4.19;100.00;100414.42;126526;1098;101666;-83
2023/04/04 08:19:57;;;;;;;35.40;17.23;;;;;;;4.19;100.00;100405.70;125893;1099;102144;-79
2023/04/04 08:22:35;;;;;;;40.60;19.80;;;;;;;4.22;100.00;100388.59;125129;1099;103685;-79
2023/04/04 08:25:11;;;;;;;38.60;19.27;;;;;;;4.24;100.00;100389.60;126609;1098;104043;-77
2023/04/04 08:27:44;;;;;;;39.40;19.77;;;;;;;4.27;100.00;100386.27;125721;1099;103945;-79
2023/04/04 08:30:17;;;;;;;41.73;19.70;;;;;;;4.26;100.00;100387.09;126748;1098;104069;-79
2023/04/04 08:32:51;;;;;;;42.23;18.83;;;;;;;4.27;100.00;100389.78;126331;1098;103872;-81
2023/04/04 08:35:24;;;;;;;44.73;17.83;;;;;;;4.26;100.00;100382.78;125346;1099;101647;-78
2023/04/04 08:37:57;;;;;;;44.13;22.23;;;;;;;4.26;100.00;100366.31;125097;1099;101799;-78
2023/04/04 08:40:39;;;;;;;51.00;21.67;;;;;;;4.26;100.00;100366.31;124534;1099;101683;-78
2023/04/04 08:43:14;;;;;;;40.13;19.50;;;;;;;4.25;100.00;100364.52;125012;1098;104069;-78
2023/04/04 08:46:04;;;;;;;40.67;18.87;;;;;;;4.25;100.00;100374.91;125171;1098;104130;-82
2023/04/04 08:48:43;;;;;;;37.53;17.77;;;;;;;4.22;100.00;100380.80;125490;1099;104006;-83
2023/04/04 08:51:26;;;;;;;37.43;17.23;;;;;;;4.20;100.00;100376.34;125162;1098;101755;-76
2023/04/04 08:54:13;;;;;;;35.63;15.93;;;;;;;4.19;100.00;100369.34;125444;1099;102039;-87
2023/04/04 08:56:51;;;;;;;38.10;17.13;;;;;;;4.16;100.00;100370.08;126160;1099;103910;-85
2023/04/04 08:59:24;;;;;;;36.77;16.70;;;;;;;4.12;100.00;100368.98;126009;1099;103483;-80
2023/04/04 09:02:04;;;;;;;34.67;15.57;;;;;;;4.15;100.00;100381.27;125612;1099;101677;-80
2023/04/04 09:04:37;;;;;;;35.40;17.40;;;;;;;4.18;100.00;100386.64;125512;1099;103104;-80
2023/04/04 09:07:15;;;;;;;36.53;16.57;;;;;;;4.21;100.00;100381.62;125848;1098;101564;-82
2023/04/04 09:09:49;;;;;;;35.23;16.63;;;;;;;4.27;100.00;100394.06;125459;1099;101641;-81
2023/04/04 09:12:25;;;;;;;39.83;18.23;;;;;;;4.29;100.00;100388.16;125517;1099;104057;-79
2023/04/04 09:14:59;;;;;;;36.17;17.63;;;;;;;4.30;100.00;100386.45;125326;1099;104076;-79
2023/04/04 09:17:34;;;;;;;37.37;16.73;;;;;;;4.34;100.00;100395.34;125002;1099;101909;-80
2023/04/04 09:20:39;;;;;;;35.97;16.87;;;;;;;4.36;100.00;100404.11;126337;1098;101949;-77
2023/04/04 09:23:16;;;;;;;35.03;16.73;;;;;;;4.38;100.00;100400.81;125684;1099;101994;-80
2023/04/04 09:25:52;;;;;;;33.23;14.93;;;;;;;4.44;100.00;100397.66;125800;1098;102988;-81
2023/04/04 09:28:52;;;;;;;33.90;16.83;;;;;;;4.47;100.00;100396.16;126266;1099;101885;-80
2023/04/04 09:31:26;;;;;;;28.67;13.93;;;;;;;4.50;100.00;100393.73;126083;1099;102578;-78
2023/04/04 09:34:00;;;;;;;29.73;14.30;;;;;;;4.50;100.00;100390.22;125469;1099;102363;-80
2023/04/04 09:36:33;;;;;;;27.07;13.13;;;;;;;4.52;100.00;100390.30;125411;1098;104065;-80
2023/04/04 09:39:06;;;;;;;26.73;12.57;;;;;;;4.52;100.00;100379.91;125757;1099;103970;-76
2023/04/04 09:41:40;;;;;;;25.50;11.65;;;;;;;4.52;100.00;100366.92;124727;1099;104000;-75
2023/04/04 09:44:16;;;;;;;22.47;11.17;;;;;;;4.56;100.00;100369.78;124943;1099;102077;-76
2023/04/04 09:46:51;;;;;;;25.85;12.25;;;;;;;4.58;100.00;100364.67;125082;1099;102133;-81
2023/04/04 09:49:24;;;;;;;27.50;13.77;;;;;;;4.64;100.00;100368.55;125164;1099;103970;-76
2023/04/04 09:52:02;;;;;;;24.63;11.63;;;;;;;4.73;100.00;100360.36;125361;1099;104069;-78
2023/04/04 09:55:19;;;;;;;23.73;10.37;;;;;;;4.71;100.00;100350.70;124812;1099;103947;-76
2023/04/04 09:57:56;;;;;;;18.97;8.70;;;;;;;4.70;100.00;100341.10;124380;1099;103999;-77
2023/04/04 10:00:32;;;;;;;15.75;8.05;;;;;;;4.72;100.00;100326.47;124874;1099;103938;-76
2023/04/04 10:03:09;;;;;;;17.17;7.13;;;;;;;4.78;100.00;100313.83;124749;1099;103948;-77
2023/04/04 10:05:44;;;;;;;17.43;7.37;;;;;;;4.81;100.00;100301.87;124323;1099;101602;-76
2023/04/04 10:08:22;;;;;;;14.87;6.57;;;;;;;4.90;100.00;100279.82;124428;1099;104021;-76
2023/04/04 10:10:59;;;;;;;14.40;7.13;;;;;;;4.94;100.00;100253.16;126039;1098;101810;-74
2023/04/04 10:13:46;;;;;;;15.53;7.20;;;;;;;4.98;100.00;100258.61;126248;1098;101718;-77
2023/04/04 10:16:26;;;;;;;19.03;9.47;;;;;;;5.07;100.00;100263.42;124611;1099;101673;-77
2023/04/04 10:19:01;;;;;;;13.90;6.50;;;;;;;5.12;100.00;100256.75;125974;1099;111395;-76
2023/04/04 10:21:40;;;;;;;14.23;6.50;;;;;;;5.13;100.00;100262.87;124726;1099;101609;-72
2023/04/04 10:24:16;;;;;;;13.57;6.80;;;;;;;5.07;100.00;100258.22;125978;1098;101749;-74
2023/04/04 10:26:49;;;;;;;14.57;7.07;;;;;;;5.10;100.00;100253.19;124790;1099;103403;-75
2023/04/04 10:29:22;;;;;;;9.47;4.90;;;;;;;5.11;100.00;100254.06;124677;1099;103945;-75
2023/04/04 10:32:05;;;;;;;9.15;5.05;;;;;;;5.09;100.00;100242.70;124705;1099;103955;-75
2023/04/04 10:34:46;;;;;;;11.45;5.15;;;;;;;5.03;100.00;100235.45;124347;1099;103952;-76
2023/04/04 10:37:29;;;;;;;13.27;6.27;;;;;;;5.03;100.00;100246.77;125164;1099;104031;-74
2023/04/04 10:40:13;;;;;;;14.10;6.70;;;;;;;5.05;100.00;100249.45;125227;1099;104051;-79
2023/04/04 10:42:52;;;;;;;15.13;6.60;;;;;;;5.06;100.00;100260.73;124882;1098;103967;-74
2023/04/04 10:45:27;;;;;;;13.25;6.05;;;;;;;5.10;100.00;100247.09;124768;1098;103980;-76
2023/04/04 10:48:01;;;;;;;14.77;7.03;;;;;;;5.08;100.00;100252.22;125180;1099;101863;-75
2023/04/04 10:50:35;;;;;;;11.97;6.17;;;;;;;5.04;100.00;100269.34;126621;1098;101941;-73
2023/04/04 10:53:09;;;;;;;9.37;5.10;;;;;;;5.03;100.00;100272.77;127014;1097;103868;-75
2023/04/04 10:55:46;;;;;;;9.93;5.63;;;;;;;5.03;100.00;100277.97;126412;1098;101698;-73
2023/04/04 10:58:18;;;;;;;11.70;5.83;;;;;;;5.01;100.00;100266.58;124867;1099;103983;-72
2023/04/04 11:04:22;;;;;;;11.20;5.65;;;;;;;5.07;100.00;100236.53;124688;1099;104158;-73
2023/04/04 11:07:11;;;;;;;10.13;5.33;;;;;;;5.12;100.00;100232.45;126003;1098;103983;-76
2023/04/04 11:10:02;;;;;;;10.77;5.70;;;;;;;5.13;100.00;100229.94;124902;1098;104151;-74
2023/04/04 11:12:46;;;;;;;10.83;5.70;;;;;;;5.16;100.00;100230.10;124898;1099;103222;-76
2023/04/04 11:15:23;;;;;;;10.67;5.43;;;;;;;5.20;100.00;100236.34;124682;1099;104000;-74
2023/04/04 11:18:02;;;;;;;11.47;6.17;;;;;;;5.25;100.00;100241.80;124787;1099;101736;-73
2023/04/04 11:20:38;;;;;;;12.43;6.10;;;;;;;5.31;100.00;100222.19;125214;1099;107095;-74
2023/04/04 11:23:19;;;;;;;10.10;5.40;;;;;;;5.32;100.00;100210.09;126347;1098;103924;-74
2023/04/04 11:25:58;;;;;;;12.60;5.60;;;;;;;5.27;100.00;100177.75;124843;1099;101737;-75
2023/04/04 11:28:46;;;;;;;10.67;6.00;;;;;;;5.33;100.00;100171.16;126028;1098;101601;-74
2023/04/04 11:31:31;;;;;;;12.20;6.20;;;;;;;5.36;100.00;100179.11;125443;1099;102054;-77
2023/04/04 11:34:08;;;;;;;13.20;6.70;;;;;;;5.40;100.00;100201.85;126154;1098;101848;-76
2023/04/04 11:37:15;;;;;;;11.93;6.50;;;;;;;5.39;100.00;100218.30;126917;1098;101830;-77
2023/04/04 11:39:57;;;;;;;12.03;5.60;;;;;;;5.33;100.00;100210.17;124951;1099;102594;-74
2023/04/04 11:42:40;;;;;;;12.27;6.60;;;;;;;5.29;100.00;100186.52;125015;1099;101752;-76
2023/04/04 11:45:25;;;;;;;14.83;6.17;;;;;;;5.35;100.00;100184.23;124464;1099;103980;-77
2023/04/04 11:48:01;;;;;;;11.77;6.20;;;;;;;5.39;100.00;100193.97;124903;1099;101944;-74